sensor_id;sensor_type;location;lat;lon;timestamp;temperature;humidity
52209;DHT22;38507;53.132;6.394;2024-03-02T00:00:03;8.30;99.90
52209;DHT22;38507;53.132;6.394;2024-03-02T00:02:43;7.90;99.90
52209;DHT22;38507;53.132;6.394;2024-03-02T00:05:15;7.60;99.90
52209;DHT22;38507;53.132;6.394;2024-03-02T00:07:42;8.50;99.90
52209;DHT22;38507;53.132;6.394;2024-03-02T00:10:10;8.80;99.90
52209;DHT22;38507;53.132;6.394;2024-03-02T00:12:37;7.60;99.90
52209;DHT22;38507;53.132;6.394;2024-03-02T00:15:25;8.00;99.90
52209;DHT22;38507;53.132;6.394;2024-03-02T00:17:53;7.60;99.90
52209;DHT22;38507;53.132;6.394;2024-03-02T00:20:22;8.80;99.90
52209;DHT22;38507;53.132;6.394;2024-03-02T00:22:48;7.60;99.90
52209;DHT22;38507;53.132;6.394;2024-03-02T00:25:14;8.50;99.90
52209;DHT22;38507;53.132;6.394;2024-03-02T00:27:40;7.60;99.90
52209;DHT22;38507;53.132;6.394;2024-03-02T00:33:08;7.60;99.90
52209;DHT22;38507;53.132;6.394;2024-03-02T00:35:34;7.60;99.90
52209;DHT22;38507;53.132;6.394;2024-03-02T00:38:07;8.70;99.90
52209;DHT22;38507;53.132;6.394;2024-03-02T00:40:32;7.70;99.90
52209;DHT22;38507;53.132;6.394;2024-03-02T00:42:59;7.80;99.90
52209;DHT22;38507;53.132;6.394;2024-03-02T00:45:25;8.10;99.90
52209;DHT22;38507;53.132;6.394;2024-03-02T00:47:52;8.90;99.90
52209;DHT22;38507;53.132;6.394;2024-03-02T00:50:18;8.90;99.90
52209;DHT22;38507;53.132;6.394;2024-03-02T00:52:44;7.70;99.90
52209;DHT22;38507;53.132;6.394;2024-03-02T00:55:09;8.90;99.90
52209;DHT22;38507;53.132;6.394;2024-03-02T00:57:35;8.90;99.90
52209;DHT22;38507;53.132;6.394;2024-03-02T01:00:01;8.60;99.90
52209;DHT22;38507;53.132;6.394;2024-03-02T01:02:28;8.10;99.90
52209;DHT22;38507;53.132;6.394;2024-03-02T01:04:54;8.60;99.90
52209;DHT22;38507;53.132;6.394;2024-03-02T01:07:20;8.60;99.90
52209;DHT22;38507;53.132;6.394;2024-03-02T01:09:46;7.80;99.90
52209;DHT22;38507;53.132;6.394;2024-03-02T01:12:11;7.80;99.90
52209;DHT22;38507;53.132;6.394;2024-03-02T01:14:37;7.80;99.90
52209;DHT22;38507;53.132;6.394;2024-03-02T01:17:02;7.80;99.90
52209;DHT22;38507;53.132;6.394;2024-03-02T01:19:30;7.90;99.90
52209;DHT22;38507;53.132;6.394;2024-03-02T01:21:55;7.80;99.90
52209;DHT22;38507;53.132;6.394;2024-03-02T01:24:22;7.80;99.90
52209;DHT22;38507;53.132;6.394;2024-03-02T01:26:47;9.10;99.90
52209;DHT22;38507;53.132;6.394;2024-03-02T01:29:13;7.90;99.90
52209;DHT22;38507;53.132;6.394;2024-03-02T01:31:39;8.30;99.90
52209;DHT22;38507;53.132;6.394;2024-03-02T01:34:07;8.50;99.90
52209;DHT22;38507;53.132;6.394;2024-03-02T01:36:33;8.30;99.90
52209;DHT22;38507;53.132;6.394;2024-03-02T01:38:59;9.00;99.90
52209;DHT22;38507;53.132;6.394;2024-03-02T01:41:25;7.90;99.90
52209;DHT22;38507;53.132;6.394;2024-03-02T01:43:50;7.90;99.90
52209;DHT22;38507;53.132;6.394;2024-03-02T01:46:16;9.20;99.90
52209;DHT22;38507;53.132;6.394;2024-03-02T01:48:42;8.50;99.90
52209;DHT22;38507;53.132;6.394;2024-03-02T01:51:08;8.20;99.90
52209;DHT22;38507;53.132;6.394;2024-03-02T01:53:34;9.00;99.90
52209;DHT22;38507;53.132;6.394;2024-03-02T01:56:00;8.90;99.90
52209;DHT22;38507;53.132;6.394;2024-03-02T01:58:27;8.70;99.90
52209;DHT22;38507;53.132;6.394;2024-03-02T02:00:53;9.00;99.90
52209;DHT22;38507;53.132;6.394;2024-03-02T02:03:18;8.70;99.90
52209;DHT22;38507;53.132;6.394;2024-03-02T02:05:45;8.30;99.90
52209;DHT22;38507;53.132;6.394;2024-03-02T02:08:12;8.90;99.90
52209;DHT22;38507;53.132;6.394;2024-03-02T02:10:38;8.90;99.90
52209;DHT22;38507;53.132;6.394;2024-03-02T02:13:03;7.80;99.90
52209;DHT22;38507;53.132;6.394;2024-03-02T02:15:30;7.70;99.90
52209;DHT22;38507;53.132;6.394;2024-03-02T02:17:57;7.80;99.90
52209;DHT22;38507;53.132;6.394;2024-03-02T02:20:23;7.80;99.90
52209;DHT22;38507;53.132;6.394;2024-03-02T02:25:21;7.80;99.90
52209;DHT22;38507;53.132;6.394;2024-03-02T02:27:47;8.40;99.90
52209;DHT22;38507;53.132;6.394;2024-03-02T02:30:12;7.80;99.90
52209;DHT22;38507;53.132;6.394;2024-03-02T02:32:38;7.80;99.90
52209;DHT22;38507;53.132;6.394;2024-03-02T02:35:04;8.90;99.90
52209;DHT22;38507;53.132;6.394;2024-03-02T02:37:30;7.70;99.90
52209;DHT22;38507;53.132;6.394;2024-03-02T02:39:56;8.00;99.90
52209;DHT22;38507;53.132;6.394;2024-03-02T02:42:22;8.20;99.90
52209;DHT22;38507;53.132;6.394;2024-03-02T02:44:47;8.90;99.90
52209;DHT22;38507;53.132;6.394;2024-03-02T02:47:13;8.80;99.90
52209;DHT22;38507;53.132;6.394;2024-03-02T02:49:38;8.60;99.90
52209;DHT22;38507;53.132;6.394;2024-03-02T02:52:04;7.80;99.90
52209;DHT22;38507;53.132;6.394;2024-03-02T02:54:30;7.80;99.90
52209;DHT22;38507;53.132;6.394;2024-03-02T02:56:55;7.80;99.90
52209;DHT22;38507;53.132;6.394;2024-03-02T02:59:21;8.80;99.90
52209;DHT22;38507;53.132;6.394;2024-03-02T03:01:47;9.00;99.90
52209;DHT22;38507;53.132;6.394;2024-03-02T03:04:12;8.80;99.90
52209;DHT22;38507;53.132;6.394;2024-03-02T03:06:38;8.40;99.90
52209;DHT22;38507;53.132;6.394;2024-03-02T03:09:04;8.60;99.90
52209;DHT22;38507;53.132;6.394;2024-03-02T03:11:29;7.70;99.90
52209;DHT22;38507;53.132;6.394;2024-03-02T03:13:55;7.70;99.90
52209;DHT22;38507;53.132;6.394;2024-03-02T03:16:21;8.20;99.90
52209;DHT22;38507;53.132;6.394;2024-03-02T03:18:46;7.70;99.90
52209;DHT22;38507;53.132;6.394;2024-03-02T03:21:12;8.70;99.90
52209;DHT22;38507;53.132;6.394;2024-03-02T03:23:38;8.60;99.90
52209;DHT22;38507;53.132;6.394;2024-03-02T03:26:03;8.70;99.90
52209;DHT22;38507;53.132;6.394;2024-03-02T03:28:29;8.60;99.90
52209;DHT22;38507;53.132;6.394;2024-03-02T03:30:55;7.70;99.90
52209;DHT22;38507;53.132;6.394;2024-03-02T03:33:21;8.80;99.90
52209;DHT22;38507;53.132;6.394;2024-03-02T03:35:46;8.40;99.90
52209;DHT22;38507;53.132;6.394;2024-03-02T03:38:13;8.70;99.90
52209;DHT22;38507;53.132;6.394;2024-03-02T03:40:39;8.20;99.90
52209;DHT22;38507;53.132;6.394;2024-03-02T03:43:05;8.20;99.90
52209;DHT22;38507;53.132;6.394;2024-03-02T03:45:30;7.80;99.90
52209;DHT22;38507;53.132;6.394;2024-03-02T03:47:56;8.80;99.90
52209;DHT22;38507;53.132;6.394;2024-03-02T03:50:22;8.60;99.90
52209;DHT22;38507;53.132;6.394;2024-03-02T03:52:47;8.90;99.90
52209;DHT22;38507;53.132;6.394;2024-03-02T03:55:13;7.60;99.90
52209;DHT22;38507;53.132;6.394;2024-03-02T03:57:39;7.60;99.90
52209;DHT22;38507;53.132;6.394;2024-03-02T04:00:05;8.10;99.90
52209;DHT22;38507;53.132;6.394;2024-03-02T04:02:34;7.60;99.90
52209;DHT22;38507;53.132;6.394;2024-03-02T04:05:00;8.70;99.90
52209;DHT22;38507;53.132;6.394;2024-03-02T04:07:26;8.50;99.90
52209;DHT22;38507;53.132;6.394;2024-03-02T04:09:52;8.50;99.90
52209;DHT22;38507;53.132;6.394;2024-03-02T04:12:17;8.80;99.90
52209;DHT22;38507;53.132;6.394;2024-03-02T04:14:43;7.60;99.90
52209;DHT22;38507;53.132;6.394;2024-03-02T04:17:08;7.60;99.90
52209;DHT22;38507;53.132;6.394;2024-03-02T04:19:35;8.90;99.90
52209;DHT22;38507;53.132;6.394;2024-03-02T04:22:00;7.80;99.90
52209;DHT22;38507;53.132;6.394;2024-03-02T04:24:26;7.70;99.90
52209;DHT22;38507;53.132;6.394;2024-03-02T04:26:51;8.50;99.90
52209;DHT22;38507;53.132;6.394;2024-03-02T04:29:17;8.80;99.90
52209;DHT22;38507;53.132;6.394;2024-03-02T04:31:43;8.90;99.90
52209;DHT22;38507;53.132;6.394;2024-03-02T04:34:08;8.30;99.90
52209;DHT22;38507;53.132;6.394;2024-03-02T04:36:34;7.70;99.90
52209;DHT22;38507;53.132;6.394;2024-03-02T04:39:01;8.00;99.90
52209;DHT22;38507;53.132;6.394;2024-03-02T04:41:27;7.60;99.90
52209;DHT22;38507;53.132;6.394;2024-03-02T04:43:53;8.20;99.90
52209;DHT22;38507;53.132;6.394;2024-03-02T04:46:18;8.80;99.90
52209;DHT22;38507;53.132;6.394;2024-03-02T04:48:44;8.60;99.90
52209;DHT22;38507;53.132;6.394;2024-03-02T04:51:10;8.60;99.90
52209;DHT22;38507;53.132;6.394;2024-03-02T04:53:36;8.80;99.90
52209;DHT22;38507;53.132;6.394;2024-03-02T04:56:02;8.00;99.90
52209;DHT22;38507;53.132;6.394;2024-03-02T04:58:33;7.60;99.90
52209;DHT22;38507;53.132;6.394;2024-03-02T05:00:59;8.10;99.90
52209;DHT22;38507;53.132;6.394;2024-03-02T05:03:24;8.00;99.90
52209;DHT22;38507;53.132;6.394;2024-03-02T05:05:50;8.50;99.90
52209;DHT22;38507;53.132;6.394;2024-03-02T05:08:16;7.60;99.90
52209;DHT22;38507;53.132;6.394;2024-03-02T05:10:42;8.60;99.90
52209;DHT22;38507;53.132;6.394;2024-03-02T05:13:08;8.50;99.90
52209;DHT22;38507;53.132;6.394;2024-03-02T05:15:33;8.60;99.90
52209;DHT22;38507;53.132;6.394;2024-03-02T05:17:59;7.50;99.90
52209;DHT22;38507;53.132;6.394;2024-03-02T05:20:25;8.60;99.90
52209;DHT22;38507;53.132;6.394;2024-03-02T05:22:51;8.70;99.90
52209;DHT22;38507;53.132;6.394;2024-03-02T05:25:16;8.20;99.90
52209;DHT22;38507;53.132;6.394;2024-03-02T05:27:42;8.20;99.90
52209;DHT22;38507;53.132;6.394;2024-03-02T05:30:08;7.80;99.90
52209;DHT22;38507;53.132;6.394;2024-03-02T05:32:34;7.40;99.90
52209;DHT22;38507;53.132;6.394;2024-03-02T05:34:59;7.90;99.90
52209;DHT22;38507;53.132;6.394;2024-03-02T05:37:25;7.90;99.90
52209;DHT22;38507;53.132;6.394;2024-03-02T05:39:51;8.30;99.90
52209;DHT22;38507;53.132;6.394;2024-03-02T05:42:16;7.40;99.90
52209;DHT22;38507;53.132;6.394;2024-03-02T05:44:43;7.30;99.90
52209;DHT22;38507;53.132;6.394;2024-03-02T05:47:08;8.10;99.90
52209;DHT22;38507;53.132;6.394;2024-03-02T05:49:34;8.50;99.90
52209;DHT22;38507;53.132;6.394;2024-03-02T05:52:00;8.20;99.90
52209;DHT22;38507;53.132;6.394;2024-03-02T05:54:26;8.50;99.90
52209;DHT22;38507;53.132;6.394;2024-03-02T05:56:51;8.70;99.90
52209;DHT22;38507;53.132;6.394;2024-03-02T05:59:17;8.40;99.90
52209;DHT22;38507;53.132;6.394;2024-03-02T06:01:44;8.60;99.90
52209;DHT22;38507;53.132;6.394;2024-03-02T06:04:10;8.00;99.90
52209;DHT22;38507;53.132;6.394;2024-03-02T06:06:39;8.10;99.90
52209;DHT22;38507;53.132;6.394;2024-03-02T06:09:06;8.30;99.90
52209;DHT22;38507;53.132;6.394;2024-03-02T06:11:39;8.60;99.90
52209;DHT22;38507;53.132;6.394;2024-03-02T06:14:07;7.90;99.90
52209;DHT22;38507;53.132;6.394;2024-03-02T06:16:33;7.40;99.90
52209;DHT22;38507;53.132;6.394;2024-03-02T06:18:59;8.20;99.90
52209;DHT22;38507;53.132;6.394;2024-03-02T06:21:25;7.30;99.90
52209;DHT22;38507;53.132;6.394;2024-03-02T06:23:51;8.50;99.90
52209;DHT22;38507;53.132;6.394;2024-03-02T06:26:17;8.40;99.90
52209;DHT22;38507;53.132;6.394;2024-03-02T06:28:43;7.60;99.90
52209;DHT22;38507;53.132;6.394;2024-03-02T06:31:09;8.50;99.90
52209;DHT22;38507;53.132;6.394;2024-03-02T06:33:35;7.90;99.90
52209;DHT22;38507;53.132;6.394;2024-03-02T06:36:01;7.30;99.90
52209;DHT22;38507;53.132;6.394;2024-03-02T06:38:27;7.20;99.90
52209;DHT22;38507;53.132;6.394;2024-03-02T06:40:53;7.90;99.90
52209;DHT22;38507;53.132;6.394;2024-03-02T06:43:19;8.30;99.90
52209;DHT22;38507;53.132;6.394;2024-03-02T06:45:51;8.00;99.90
52209;DHT22;38507;53.132;6.394;2024-03-02T06:48:18;8.30;99.90
52209;DHT22;38507;53.132;6.394;2024-03-02T06:50:46;7.20;99.90
52209;DHT22;38507;53.132;6.394;2024-03-02T06:53:13;7.50;99.90
52209;DHT22;38507;53.132;6.394;2024-03-02T06:55:39;8.10;99.90
52209;DHT22;38507;53.132;6.394;2024-03-02T06:58:04;8.20;99.90
52209;DHT22;38507;53.132;6.394;2024-03-02T07:00:30;7.20;99.90
52209;DHT22;38507;53.132;6.394;2024-03-02T07:02:56;7.10;99.90
52209;DHT22;38507;53.132;6.394;2024-03-02T07:05:21;8.20;99.90
52209;DHT22;38507;53.132;6.394;2024-03-02T07:07:47;8.10;99.90
52209;DHT22;38507;53.132;6.394;2024-03-02T07:10:13;8.40;99.90
52209;DHT22;38507;53.132;6.394;2024-03-02T07:12:38;7.10;99.90
52209;DHT22;38507;53.132;6.394;2024-03-02T07:15:04;7.10;99.90
52209;DHT22;38507;53.132;6.394;2024-03-02T07:17:31;6.50;99.90
52209;DHT22;38507;53.132;6.394;2024-03-02T07:19:57;7.10;99.90
52209;DHT22;38507;53.132;6.394;2024-03-02T07:22:23;8.20;99.90
52209;DHT22;38507;53.132;6.394;2024-03-02T07:24:49;8.20;99.90
52209;DHT22;38507;53.132;6.394;2024-03-02T07:27:15;8.30;99.90
52209;DHT22;38507;53.132;6.394;2024-03-02T07:29:41;7.90;99.90
52209;DHT22;38507;53.132;6.394;2024-03-02T07:32:08;7.90;99.90
52209;DHT22;38507;53.132;6.394;2024-03-02T07:34:34;7.80;99.90
52209;DHT22;38507;53.132;6.394;2024-03-02T07:37:00;8.10;99.90
52209;DHT22;38507;53.132;6.394;2024-03-02T07:39:26;7.90;99.90
52209;DHT22;38507;53.132;6.394;2024-03-02T07:41:52;8.10;99.90
52209;DHT22;38507;53.132;6.394;2024-03-02T07:44:17;7.60;99.90
52209;DHT22;38507;53.132;6.394;2024-03-02T07:46:45;8.10;99.90
52209;DHT22;38507;53.132;6.394;2024-03-02T07:49:16;7.60;99.90
52209;DHT22;38507;53.132;6.394;2024-03-02T07:51:42;7.60;99.90
52209;DHT22;38507;53.132;6.394;2024-03-02T07:54:07;6.90;99.90
52209;DHT22;38507;53.132;6.394;2024-03-02T07:56:33;7.00;99.90
52209;DHT22;38507;53.132;6.394;2024-03-02T07:58:59;7.90;99.90
52209;DHT22;38507;53.132;6.394;2024-03-02T08:01:30;7.80;99.90
52209;DHT22;38507;53.132;6.394;2024-03-02T08:03:57;7.10;99.90
52209;DHT22;38507;53.132;6.394;2024-03-02T08:06:24;8.30;99.90
52209;DHT22;38507;53.132;6.394;2024-03-02T08:08:53;8.20;99.90
52209;DHT22;38507;53.132;6.394;2024-03-02T08:11:20;8.20;99.90
52209;DHT22;38507;53.132;6.394;2024-03-02T08:13:46;7.80;99.90
52209;DHT22;38507;53.132;6.394;2024-03-02T08:16:11;8.60;99.90
52209;DHT22;38507;53.132;6.394;2024-03-02T08:18:37;7.40;99.90
52209;DHT22;38507;53.132;6.394;2024-03-02T08:21:03;8.00;99.90
52209;DHT22;38507;53.132;6.394;2024-03-02T08:23:28;7.40;99.90
52209;DHT22;38507;53.132;6.394;2024-03-02T08:25:54;8.60;99.90
52209;DHT22;38507;53.132;6.394;2024-03-02T08:28:20;7.60;99.90
52209;DHT22;38507;53.132;6.394;2024-03-02T08:30:45;8.80;99.90
52209;DHT22;38507;53.132;6.394;2024-03-02T08:33:11;8.90;99.90
52209;DHT22;38507;53.132;6.394;2024-03-02T08:35:36;8.10;99.90
52209;DHT22;38507;53.132;6.394;2024-03-02T08:38:03;9.00;99.90
52209;DHT22;38507;53.132;6.394;2024-03-02T08:40:30;7.70;99.90
52209;DHT22;38507;53.132;6.394;2024-03-02T08:42:55;9.10;99.90
52209;DHT22;38507;53.132;6.394;2024-03-02T08:45:21;7.90;99.90
52209;DHT22;38507;53.132;6.394;2024-03-02T08:47:47;7.90;99.90
52209;DHT22;38507;53.132;6.394;2024-03-02T08:50:13;9.10;99.90
52209;DHT22;38507;53.132;6.394;2024-03-02T08:52:39;8.30;99.90
52209;DHT22;38507;53.132;6.394;2024-03-02T08:55:06;9.10;99.90
52209;DHT22;38507;53.132;6.394;2024-03-02T08:57:33;7.90;99.90
52209;DHT22;38507;53.132;6.394;2024-03-02T08:59:59;8.90;99.90
52209;DHT22;38507;53.132;6.394;2024-03-02T09:02:25;9.10;99.90
52209;DHT22;38507;53.132;6.394;2024-03-02T09:04:51;9.10;99.90
52209;DHT22;38507;53.132;6.394;2024-03-02T09:07:17;8.10;99.90
52209;DHT22;38507;53.132;6.394;2024-03-02T09:09:43;9.40;99.90
52209;DHT22;38507;53.132;6.394;2024-03-02T09:12:09;8.70;99.90
52209;DHT22;38507;53.132;6.394;2024-03-02T09:14:35;9.50;99.90
52209;DHT22;38507;53.132;6.394;2024-03-02T09:17:02;9.30;99.90
52209;DHT22;38507;53.132;6.394;2024-03-02T09:19:31;8.50;99.90
52209;DHT22;38507;53.132;6.394;2024-03-02T09:22:03;9.00;99.90
52209;DHT22;38507;53.132;6.394;2024-03-02T09:24:33;8.30;99.90
52209;DHT22;38507;53.132;6.394;2024-03-02T09:27:02;9.50;99.90
52209;DHT22;38507;53.132;6.394;2024-03-02T09:29:28;8.70;99.90
52209;DHT22;38507;53.132;6.394;2024-03-02T09:31:54;9.00;99.90
52209;DHT22;38507;53.132;6.394;2024-03-02T09:34:21;10.10;99.90
52209;DHT22;38507;53.132;6.394;2024-03-02T09:36:47;10.00;99.90
52209;DHT22;38507;53.132;6.394;2024-03-02T09:39:13;9.80;99.90
52209;DHT22;38507;53.132;6.394;2024-03-02T09:41:39;9.00;99.90
52209;DHT22;38507;53.132;6.394;2024-03-02T09:44:06;9.10;99.90
52209;DHT22;38507;53.132;6.394;2024-03-02T09:46:31;9.10;99.90
52209;DHT22;38507;53.132;6.394;2024-03-02T09:48:58;10.00;99.90
52209;DHT22;38507;53.132;6.394;2024-03-02T09:51:24;9.20;99.90
52209;DHT22;38507;53.132;6.394;2024-03-02T09:53:50;9.00;99.90
52209;DHT22;38507;53.132;6.394;2024-03-02T09:56:16;9.10;99.90
52209;DHT22;38507;53.132;6.394;2024-03-02T09:58:44;10.10;99.90
52209;DHT22;38507;53.132;6.394;2024-03-02T10:01:09;9.70;99.90
52209;DHT22;38507;53.132;6.394;2024-03-02T10:03:37;9.20;99.90
52209;DHT22;38507;53.132;6.394;2024-03-02T10:06:23;9.20;99.90
52209;DHT22;38507;53.132;6.394;2024-03-02T10:08:50;9.40;99.90
52209;DHT22;38507;53.132;6.394;2024-03-02T10:11:32;9.50;99.90
52209;DHT22;38507;53.132;6.394;2024-03-02T10:14:09;10.60;99.90
52209;DHT22;38507;53.132;6.394;2024-03-02T10:16:40;10.00;99.90
52209;DHT22;38507;53.132;6.394;2024-03-02T10:19:22;10.40;99.90
52209;DHT22;38507;53.132;6.394;2024-03-02T10:21:49;10.30;99.90
52209;DHT22;38507;53.132;6.394;2024-03-02T10:24:15;10.40;99.90
52209;DHT22;38507;53.132;6.394;2024-03-02T10:26:41;11.10;99.90
52209;DHT22;38507;53.132;6.394;2024-03-02T10:29:11;11.40;99.90
52209;DHT22;38507;53.132;6.394;2024-03-02T10:31:38;11.60;99.90
52209;DHT22;38507;53.132;6.394;2024-03-02T10:34:04;11.10;99.90
52209;DHT22;38507;53.132;6.394;2024-03-02T10:36:30;11.00;99.90
52209;DHT22;38507;53.132;6.394;2024-03-02T10:38:56;10.90;99.90
52209;DHT22;38507;53.132;6.394;2024-03-02T10:41:24;11.50;99.90
52209;DHT22;38507;53.132;6.394;2024-03-02T10:43:53;11.10;99.90
52209;DHT22;38507;53.132;6.394;2024-03-02T10:46:27;10.40;99.90
52209;DHT22;38507;53.132;6.394;2024-03-02T10:48:55;11.40;99.90
52209;DHT22;38507;53.132;6.394;2024-03-02T10:51:21;11.90;99.90
52209;DHT22;38507;53.132;6.394;2024-03-02T10:53:46;10.80;99.90
52209;DHT22;38507;53.132;6.394;2024-03-02T10:56:16;11.10;99.90
52209;DHT22;38507;53.132;6.394;2024-03-02T10:58:50;11.20;99.90
52209;DHT22;38507;53.132;6.394;2024-03-02T11:01:18;11.20;99.90
52209;DHT22;38507;53.132;6.394;2024-03-02T11:03:45;11.10;99.90
52209;DHT22;38507;53.132;6.394;2024-03-02T11:06:12;12.10;99.90
52209;DHT22;38507;53.132;6.394;2024-03-02T11:08:38;11.50;99.90
52209;DHT22;38507;53.132;6.394;2024-03-02T11:11:07;11.20;99.90
52209;DHT22;38507;53.132;6.394;2024-03-02T11:13:35;11.80;99.90
52209;DHT22;38507;53.132;6.394;2024-03-02T11:16:11;11.90;99.90
52209;DHT22;38507;53.132;6.394;2024-03-02T11:18:39;11.50;99.90
52209;DHT22;38507;53.132;6.394;2024-03-02T11:21:05;11.80;99.90
52209;DHT22;38507;53.132;6.394;2024-03-02T11:23:32;12.00;99.90
52209;DHT22;38507;53.132;6.394;2024-03-02T11:26:20;12.10;99.90
52209;DHT22;38507;53.132;6.394;2024-03-02T11:28:46;12.30;99.90
52209;DHT22;38507;53.132;6.394;2024-03-02T11:31:12;12.80;99.90
52209;DHT22;38507;53.132;6.394;2024-03-02T11:33:38;12.80;99.90
52209;DHT22;38507;53.132;6.394;2024-03-02T11:36:06;12.90;99.90
52209;DHT22;38507;53.132;6.394;2024-03-02T11:38:33;13.20;99.90
52209;DHT22;38507;53.132;6.394;2024-03-02T11:41:02;13.30;99.90
52209;DHT22;38507;53.132;6.394;2024-03-02T11:43:29;13.20;99.90
52209;DHT22;38507;53.132;6.394;2024-03-02T11:46:01;14.10;99.90
52209;DHT22;38507;53.132;6.394;2024-03-02T11:48:29;13.00;99.90
52209;DHT22;38507;53.132;6.394;2024-03-02T11:50:58;13.00;99.90
52209;DHT22;38507;53.132;6.394;2024-03-02T11:53:29;13.10;99.90
52209;DHT22;38507;53.132;6.394;2024-03-02T11:55:56;13.20;99.90
52209;DHT22;38507;53.132;6.394;2024-03-02T11:58:23;13.50;99.90
52209;DHT22;38507;53.132;6.394;2024-03-02T12:00:55;13.50;99.90
52209;DHT22;38507;53.132;6.394;2024-03-02T12:03:23;13.60;99.90
52209;DHT22;38507;53.132;6.394;2024-03-02T12:05:55;13.70;99.90
52209;DHT22;38507;53.132;6.394;2024-03-02T12:08:21;13.70;99.90
52209;DHT22;38507;53.132;6.394;2024-03-02T12:11:01;14.30;99.90
52209;DHT22;38507;53.132;6.394;2024-03-02T12:13:27;13.90;99.90
52209;DHT22;38507;53.132;6.394;2024-03-02T12:15:58;13.90;99.90
52209;DHT22;38507;53.132;6.394;2024-03-02T12:18:25;14.10;99.90
52209;DHT22;38507;53.132;6.394;2024-03-02T12:20:51;14.20;99.90
52209;DHT22;38507;53.132;6.394;2024-03-02T12:23:28;14.20;99.90
52209;DHT22;38507;53.132;6.394;2024-03-02T12:25:54;14.40;99.90
52209;DHT22;38507;53.132;6.394;2024-03-02T12:28:20;14.60;99.90
52209;DHT22;38507;53.132;6.394;2024-03-02T12:30:45;14.50;99.90
52209;DHT22;38507;53.132;6.394;2024-03-02T12:33:13;14.50;99.90
52209;DHT22;38507;53.132;6.394;2024-03-02T12:35:38;14.50;99.90
52209;DHT22;38507;53.132;6.394;2024-03-02T12:38:05;14.70;99.90
52209;DHT22;38507;53.132;6.394;2024-03-02T12:40:31;14.70;99.90
52209;DHT22;38507;53.132;6.394;2024-03-02T12:42:57;15.30;99.90
52209;DHT22;38507;53.132;6.394;2024-03-02T12:45:23;14.90;99.90
52209;DHT22;38507;53.132;6.394;2024-03-02T12:47:51;14.90;99.90
52209;DHT22;38507;53.132;6.394;2024-03-02T12:50:17;15.00;99.90
52209;DHT22;38507;53.132;6.394;2024-03-02T12:52:43;15.00;99.90
52209;DHT22;38507;53.132;6.394;2024-03-02T12:55:09;15.20;99.90
52209;DHT22;38507;53.132;6.394;2024-03-02T12:57:35;15.30;99.90
52209;DHT22;38507;53.132;6.394;2024-03-02T13:00:05;15.20;99.90
52209;DHT22;38507;53.132;6.394;2024-03-02T13:02:35;15.20;99.90
52209;DHT22;38507;53.132;6.394;2024-03-02T13:05:01;15.20;99.90
52209;DHT22;38507;53.132;6.394;2024-03-02T13:07:28;15.30;99.90
52209;DHT22;38507;53.132;6.394;2024-03-02T13:09:55;15.30;99.90
52209;DHT22;38507;53.132;6.394;2024-03-02T13:12:24;15.50;99.90
52209;DHT22;38507;53.132;6.394;2024-03-02T13:14:53;15.40;99.90
52209;DHT22;38507;53.132;6.394;2024-03-02T13:17:19;15.60;99.90
52209;DHT22;38507;53.132;6.394;2024-03-02T13:19:59;15.40;99.90
52209;DHT22;38507;53.132;6.394;2024-03-02T13:22:26;15.60;99.90
52209;DHT22;38507;53.132;6.394;2024-03-02T13:24:52;15.50;99.90
52209;DHT22;38507;53.132;6.394;2024-03-02T13:27:20;15.50;99.90
52209;DHT22;38507;53.132;6.394;2024-03-02T13:29:46;15.70;99.90
52209;DHT22;38507;53.132;6.394;2024-03-02T13:32:16;15.90;99.90
52209;DHT22;38507;53.132;6.394;2024-03-02T13:34:42;15.80;99.90
52209;DHT22;38507;53.132;6.394;2024-03-02T13:37:08;15.90;99.90
52209;DHT22;38507;53.132;6.394;2024-03-02T13:39:34;15.90;99.90
52209;DHT22;38507;53.132;6.394;2024-03-02T13:42:07;15.90;99.90
52209;DHT22;38507;53.132;6.394;2024-03-02T13:44:33;16.00;99.90
52209;DHT22;38507;53.132;6.394;2024-03-02T13:47:00;16.00;99.90
52209;DHT22;38507;53.132;6.394;2024-03-02T13:49:30;16.00;99.90
52209;DHT22;38507;53.132;6.394;2024-03-02T13:52:07;15.90;99.90
52209;DHT22;38507;53.132;6.394;2024-03-02T13:54:44;15.70;99.90
52209;DHT22;38507;53.132;6.394;2024-03-02T13:57:11;15.60;99.90
52209;DHT22;38507;53.132;6.394;2024-03-02T13:59:38;15.90;99.90
52209;DHT22;38507;53.132;6.394;2024-03-02T14:02:05;15.40;99.90
52209;DHT22;38507;53.132;6.394;2024-03-02T14:04:34;15.20;99.90
52209;DHT22;38507;53.132;6.394;2024-03-02T14:07:01;15.00;99.90
52209;DHT22;38507;53.132;6.394;2024-03-02T14:09:27;15.20;99.90
52209;DHT22;38507;53.132;6.394;2024-03-02T14:11:54;14.70;99.90
52209;DHT22;38507;53.132;6.394;2024-03-02T14:14:19;14.50;99.90
52209;DHT22;38507;53.132;6.394;2024-03-02T14:16:45;14.60;99.90
52209;DHT22;38507;53.132;6.394;2024-03-02T14:19:11;14.50;99.90
52209;DHT22;38507;53.132;6.394;2024-03-02T14:21:40;14.50;99.90
52209;DHT22;38507;53.132;6.394;2024-03-02T14:24:06;14.20;99.90
52209;DHT22;38507;53.132;6.394;2024-03-02T14:26:33;14.20;99.90
52209;DHT22;38507;53.132;6.394;2024-03-02T14:28:59;14.10;99.90
52209;DHT22;38507;53.132;6.394;2024-03-02T14:31:27;14.60;99.90
52209;DHT22;38507;53.132;6.394;2024-03-02T14:33:53;14.00;99.90
52209;DHT22;38507;53.132;6.394;2024-03-02T14:36:20;13.90;99.90
52209;DHT22;38507;53.132;6.394;2024-03-02T14:38:46;13.80;99.90
52209;DHT22;38507;53.132;6.394;2024-03-02T14:41:13;13.70;99.90
52209;DHT22;38507;53.132;6.394;2024-03-02T14:43:39;13.90;99.90
52209;DHT22;38507;53.132;6.394;2024-03-02T14:46:05;13.90;99.90
52209;DHT22;38507;53.132;6.394;2024-03-02T14:48:31;13.90;99.90
52209;DHT22;38507;53.132;6.394;2024-03-02T14:50:57;13.90;99.90
52209;DHT22;38507;53.132;6.394;2024-03-02T14:53:23;14.00;99.90
52209;DHT22;38507;53.132;6.394;2024-03-02T14:55:48;14.00;99.90
52209;DHT22;38507;53.132;6.394;2024-03-02T14:58:15;14.00;99.90
52209;DHT22;38507;53.132;6.394;2024-03-02T15:00:41;14.10;99.90
52209;DHT22;38507;53.132;6.394;2024-03-02T15:03:07;14.80;99.90
52209;DHT22;38507;53.132;6.394;2024-03-02T15:05:34;14.70;99.90
52209;DHT22;38507;53.132;6.394;2024-03-02T15:08:00;14.40;99.90
52209;DHT22;38507;53.132;6.394;2024-03-02T15:10:29;14.30;99.90
52209;DHT22;38507;53.132;6.394;2024-03-02T15:12:55;14.80;99.90
52209;DHT22;38507;53.132;6.394;2024-03-02T15:15:21;14.40;99.90
52209;DHT22;38507;53.132;6.394;2024-03-02T15:17:47;14.50;99.90
52209;DHT22;38507;53.132;6.394;2024-03-02T15:20:12;14.50;99.90
52209;DHT22;38507;53.132;6.394;2024-03-02T15:22:38;14.60;99.90
52209;DHT22;38507;53.132;6.394;2024-03-02T15:25:04;14.60;99.90
52209;DHT22;38507;53.132;6.394;2024-03-02T15:27:29;14.70;99.90
52209;DHT22;38507;53.132;6.394;2024-03-02T15:29:56;14.70;99.90
52209;DHT22;38507;53.132;6.394;2024-03-02T15:32:23;14.80;99.90
52209;DHT22;38507;53.132;6.394;2024-03-02T15:34:49;14.90;99.90
52209;DHT22;38507;53.132;6.394;2024-03-02T15:37:14;15.00;99.90
52209;DHT22;38507;53.132;6.394;2024-03-02T15:39:40;15.10;99.90
52209;DHT22;38507;53.132;6.394;2024-03-02T15:42:06;15.20;99.90